createdAt,value
2019-04-04T00:00:30.308Z,6.96
2019-04-04T00:02:59.770Z,7.02
2019-04-04T00:05:29.257Z,7.27
2019-04-04T00:08:00.088Z,7.14
2019-04-04T00:10:29.731Z,7.10
2019-04-04T00:12:59.243Z,7.16
2019-04-04T00:15:28.891Z,6.95
2019-04-04T00:17:58.471Z,7.09
2019-04-04T00:20:27.938Z,6.96
2019-04-04T00:22:57.197Z,6.99
2019-04-04T00:25:26.783Z,7.07
2019-04-04T00:27:56.412Z,7.03
2019-04-04T00:30:26.091Z,6.98
2019-04-04T00:32:55.652Z,7.02
2019-04-04T00:35:25.259Z,7.06
2019-04-04T00:37:54.562Z,7.15
2019-04-04T00:40:23.742Z,7.16
2019-04-04T00:42:53.204Z,7.22
2019-04-04T00:45:22.672Z,7.25
2019-04-04T00:47:52.222Z,7.16
2019-04-04T00:50:21.930Z,7.08
2019-04-04T00:52:51.516Z,7.11
2019-04-04T00:55:20.961Z,7.25
2019-04-04T00:57:50.752Z,7.11
2019-04-04T01:00:23.826Z,6.99
2019-04-04T01:02:53.181Z,6.94
2019-04-04T01:05:23.937Z,7.07
2019-04-04T01:07:53.086Z,7.15
2019-04-04T01:10:22.563Z,7.08
2019-04-04T01:12:52.706Z,6.97
2019-04-04T01:15:22.214Z,7.01
2019-04-04T01:17:51.719Z,6.99
2019-04-04T01:20:21.153Z,7.06
2019-04-04T01:22:55.753Z,7.16
2019-04-04T01:25:23.546Z,7.05
2019-04-04T01:27:53.138Z,7.03
2019-04-04T01:30:22.607Z,7.07
2019-04-04T01:32:52.125Z,7.00
2019-04-04T01:35:22.789Z,7.04
2019-04-04T01:37:52.884Z,6.98
2019-04-04T01:40:22.497Z,6.90
2019-04-04T01:42:51.945Z,6.98
2019-04-04T01:45:21.421Z,6.92
2019-04-04T01:47:50.884Z,6.90
2019-04-04T01:50:22.449Z,7.01
2019-04-04T01:52:53.160Z,7.00
2019-04-04T01:55:24.323Z,6.92
2019-04-04T01:57:53.843Z,6.99
2019-04-04T02:00:23.303Z,6.98
2019-04-04T02:02:52.830Z,7.01
2019-04-04T02:05:22.437Z,6.94
2019-04-04T02:07:51.966Z,6.93
2019-04-04T02:10:21.600Z,6.88
2019-04-04T02:12:51.355Z,6.95
2019-04-04T02:15:20.992Z,6.98
2019-04-04T02:17:51.059Z,7.02
2019-04-04T02:20:21.597Z,6.94
2019-04-04T02:22:51.464Z,6.91
2019-04-04T02:25:20.952Z,6.89
2019-04-04T02:27:50.486Z,6.88
2019-04-04T02:30:20.067Z,6.98
2019-04-04T02:32:49.510Z,6.73
2019-04-04T02:35:19.087Z,6.82
2019-04-04T02:37:48.030Z,6.82
2019-04-04T02:40:17.239Z,6.84
2019-04-04T02:42:46.687Z,6.88
2019-04-04T02:45:16.259Z,6.90
2019-04-04T02:47:50.323Z,6.75
2019-04-04T02:50:17.402Z,6.67
2019-04-04T02:52:47.102Z,6.74
2019-04-04T02:55:16.682Z,6.65
2019-04-04T02:57:48.414Z,6.71
2019-04-04T03:00:18.075Z,6.58
2019-04-04T03:02:47.672Z,6.72
2019-04-04T03:05:19.315Z,6.79
2019-04-04T03:07:48.435Z,6.79
2019-04-04T03:10:17.980Z,6.82
2019-04-04T03:12:47.593Z,6.76
2019-04-04T03:15:17.201Z,6.73
2019-04-04T03:17:46.816Z,6.81
2019-04-04T03:20:17.196Z,6.94
2019-04-04T03:22:47.015Z,7.11
2019-04-04T03:25:16.607Z,6.98
2019-04-04T03:27:46.230Z,7.08
2019-04-04T03:30:17.315Z,7.15
2019-04-04T03:32:52.634Z,7.08
2019-04-04T03:35:25.807Z,7.02
2019-04-04T03:37:50.221Z,7.03
2019-04-04T03:40:19.748Z,7.06
2019-04-04T03:42:49.235Z,6.96
2019-04-04T03:45:18.764Z,6.98
2019-04-04T03:47:48.379Z,6.99
2019-04-04T03:50:17.895Z,7.02
2019-04-04T03:52:47.562Z,7.06
2019-04-04T03:55:17.093Z,7.04
2019-04-04T03:57:46.791Z,7.03
2019-04-04T04:00:19.378Z,6.90
2019-04-04T04:02:50.132Z,6.99
2019-04-04T04:05:23.100Z,7.01
2019-04-04T04:07:52.703Z,7.01
2019-04-04T04:10:21.939Z,6.85
2019-04-04T04:12:51.606Z,6.79
2019-04-04T04:15:21.306Z,6.85
2019-04-04T04:17:50.856Z,6.62
2019-04-04T04:20:22.166Z,6.50
2019-04-04T04:22:51.784Z,6.25
2019-04-04T04:25:21.322Z,6.52
2019-04-04T04:27:51.172Z,6.64
2019-04-04T04:30:20.611Z,6.83
2019-04-04T04:32:55.688Z,6.85
2019-04-04T04:35:21.593Z,6.64
2019-04-04T04:37:53.454Z,6.71
2019-04-04T04:40:22.393Z,6.77
2019-04-04T04:42:51.956Z,7.03
2019-04-04T04:45:21.246Z,6.86
2019-04-04T04:47:50.964Z,6.89
2019-04-04T04:50:21.324Z,7.00
2019-04-04T04:52:51.271Z,6.94
2019-04-04T04:55:24.529Z,6.86
2019-04-04T04:57:56.337Z,6.94
2019-04-04T05:00:27.536Z,7.01
2019-04-04T05:02:56.299Z,7.04
2019-04-04T05:05:25.591Z,6.92
2019-04-04T05:07:55.242Z,6.97
2019-04-04T05:10:24.247Z,6.99
2019-04-04T05:12:53.879Z,7.04
2019-04-04T05:15:23.026Z,7.07
2019-04-04T05:17:52.321Z,7.04
2019-04-04T05:20:24.871Z,6.95
2019-04-04T05:22:52.799Z,7.08
2019-04-04T05:25:22.396Z,6.99
2019-04-04T05:27:51.980Z,6.80
2019-04-04T05:30:21.457Z,6.81
2019-04-04T05:32:52.419Z,6.79
2019-04-04T05:35:22.067Z,6.76
2019-04-04T05:37:51.311Z,6.93
2019-04-04T05:40:23.145Z,6.96
2019-04-04T05:42:52.288Z,6.90
2019-04-04T05:45:21.858Z,7.02
2019-04-04T05:47:54.975Z,7.15
2019-04-04T05:50:22.644Z,6.96
2019-04-04T05:52:52.024Z,6.81
2019-04-04T05:55:21.507Z,6.93
2019-04-04T05:57:51.613Z,6.89
2019-04-04T06:00:21.488Z,6.73
2019-04-04T06:02:50.962Z,6.73
2019-04-04T06:05:20.543Z,6.93
2019-04-04T06:07:50.039Z,6.80
2019-04-04T06:10:19.565Z,6.71
2019-04-04T06:12:49.204Z,6.84
2019-04-04T06:15:18.750Z,6.90
2019-04-04T06:17:48.348Z,6.92
2019-04-04T06:20:19.750Z,6.83
2019-04-04T06:22:50.073Z,6.83
2019-04-04T06:25:20.595Z,6.90
2019-04-04T06:27:50.146Z,7.02
2019-04-04T06:30:20.239Z,7.10
2019-04-04T06:32:50.153Z,7.17
2019-04-04T06:35:19.627Z,7.17
2019-04-04T06:37:51.336Z,7.32
2019-04-04T06:40:20.481Z,7.31
2019-04-04T06:42:49.965Z,7.17
2019-04-04T06:45:19.514Z,7.18
2019-04-04T06:47:49.225Z,7.01
2019-04-04T06:50:18.780Z,7.09
2019-04-04T06:52:50.420Z,7.35
2019-04-04T06:55:19.415Z,7.29
2019-04-04T06:57:51.284Z,7.29
2019-04-04T07:00:20.085Z,7.31
2019-04-04T07:02:49.742Z,7.22
2019-04-04T07:05:19.212Z,7.32
2019-04-04T07:07:48.731Z,7.25
2019-04-04T07:10:20.957Z,7.15
2019-04-04T07:12:49.667Z,7.16
2019-04-04T07:15:19.338Z,7.05
2019-04-04T07:17:50.870Z,7.10
2019-04-04T07:20:20.499Z,7.08
2019-04-04T07:22:49.974Z,7.05
2019-04-04T07:25:19.454Z,7.05
2019-04-04T07:27:48.984Z,7.14
2019-04-04T07:30:18.599Z,7.13
2019-04-04T07:32:48.066Z,7.00
2019-04-04T07:35:17.725Z,7.04
2019-04-04T07:37:48.402Z,7.25
2019-04-04T07:40:20.298Z,7.28
2019-04-04T07:42:49.191Z,7.29
2019-04-04T07:45:20.680Z,7.27
2019-04-04T07:47:51.896Z,7.27
2019-04-04T07:50:21.294Z,7.06
2019-04-04T07:52:50.663Z,7.28
2019-04-04T07:55:20.233Z,7.28
2019-04-04T07:57:51.247Z,7.19
2019-04-04T08:00:21.231Z,7.13
2019-04-04T08:02:50.777Z,7.17
2019-04-04T08:05:20.267Z,7.25
2019-04-04T08:07:49.858Z,7.21
2019-04-04T08:10:20.798Z,7.28
2019-04-04T08:12:50.651Z,7.28
2019-04-04T08:15:20.179Z,7.13
2019-04-04T08:17:49.705Z,7.19
2019-04-04T08:20:19.348Z,7.30
2019-04-04T08:22:48.803Z,7.35
2019-04-04T08:25:18.123Z,7.41
2019-04-04T08:27:47.651Z,7.48
2019-04-04T08:30:17.265Z,7.37
2019-04-04T08:32:46.861Z,7.40
2019-04-04T08:35:16.090Z,7.43
2019-04-04T08:37:46.448Z,7.40
2019-04-04T08:40:16.062Z,7.53
2019-04-04T08:42:45.662Z,7.49
2019-04-04T08:45:15.341Z,7.69
2019-04-04T08:47:44.903Z,7.50
2019-04-04T08:50:14.535Z,7.56
2019-04-04T08:52:43.720Z,7.45
2019-04-04T08:55:13.461Z,7.55
2019-04-04T08:57:43.565Z,7.61
2019-04-04T09:00:13.602Z,7.66
2019-04-04T09:02:43.061Z,7.85
2019-04-04T09:05:13.071Z,7.89
2019-04-04T09:07:42.584Z,7.88
2019-04-04T09:10:12.619Z,7.95
2019-04-04T09:12:42.205Z,7.82
2019-04-04T09:15:12.326Z,7.73
2019-04-04T09:17:41.895Z,7.68
2019-04-04T09:20:11.257Z,7.70
2019-04-04T09:22:41.273Z,7.70
2019-04-04T09:25:12.302Z,7.80
2019-04-04T09:27:42.044Z,7.99
2019-04-04T09:30:13.620Z,8.07
2019-04-04T09:32:42.978Z,8.07
2019-04-04T09:35:12.503Z,8.17
2019-04-04T09:37:42.097Z,7.99
2019-04-04T09:40:11.899Z,8.10
2019-04-04T09:42:41.467Z,8.21
2019-04-04T09:45:12.474Z,8.28
2019-04-04T09:47:42.109Z,8.37
2019-04-04T09:50:12.036Z,8.24
2019-04-04T09:52:41.633Z,8.04
2019-04-04T09:55:11.187Z,7.95
2019-04-04T09:57:40.749Z,7.99
2019-04-04T10:00:12.843Z,7.95
2019-04-04T10:02:42.578Z,7.98
2019-04-04T10:05:13.773Z,8.09
2019-04-04T10:07:43.037Z,8.26
2019-04-04T10:10:13.199Z,8.49
2019-04-04T10:12:42.536Z,8.35
2019-04-04T10:15:13.919Z,8.45
2019-04-04T10:17:44.111Z,8.24
2019-04-04T10:20:14.313Z,8.07
2019-04-04T10:22:43.764Z,8.00
2019-04-04T10:25:14.960Z,8.00
2019-04-04T10:27:44.567Z,8.06
2019-04-04T10:30:14.385Z,8.18
2019-04-04T10:32:44.286Z,8.05
2019-04-04T10:35:13.788Z,8.06
2019-04-04T10:37:43.250Z,8.13
2019-04-04T10:40:13.780Z,8.11
2019-04-04T10:42:43.305Z,7.93
2019-04-04T10:45:12.893Z,7.99
2019-04-04T10:47:42.173Z,7.97
2019-04-04T10:50:11.904Z,7.86
2019-04-04T10:52:41.362Z,7.88
2019-04-04T10:55:11.047Z,7.91
2019-04-04T10:57:40.714Z,7.91
2019-04-04T11:00:12.224Z,7.86
2019-04-04T11:02:42.346Z,7.87
2019-04-04T11:05:12.348Z,7.84
2019-04-04T11:07:41.890Z,7.82
2019-04-04T11:10:11.692Z,7.86
2019-04-04T11:12:41.320Z,7.76
2019-04-04T11:15:11.002Z,7.70
2019-04-04T11:17:40.559Z,7.93
2019-04-04T11:20:10.393Z,7.98
2019-04-04T11:22:39.842Z,8.08
2019-04-04T11:25:09.759Z,7.99
2019-04-04T11:27:39.217Z,8.02
2019-04-04T11:30:09.856Z,8.18
2019-04-04T11:32:39.189Z,8.33
2019-04-04T11:35:09.205Z,8.44
2019-04-04T11:37:38.673Z,8.41
2019-04-04T11:40:08.358Z,8.25
2019-04-04T11:42:37.972Z,8.27
2019-04-04T11:45:07.643Z,8.31
2019-04-04T11:47:37.551Z,8.42
2019-04-04T11:50:08.095Z,8.53
2019-04-04T11:52:37.593Z,8.42
2019-04-04T11:55:07.511Z,8.34
2019-04-04T11:57:37.190Z,8.21
2019-04-04T12:00:12.333Z,8.32
2019-04-04T12:02:41.788Z,8.10
2019-04-04T12:05:11.515Z,8.07
2019-04-04T12:07:40.961Z,8.10
2019-04-04T12:10:10.892Z,7.94
2019-04-04T12:12:40.569Z,8.11
2019-04-04T12:15:10.329Z,8.05
2019-04-04T12:17:39.768Z,8.04
2019-04-04T12:20:09.883Z,8.11
2019-04-04T12:22:41.371Z,8.05
2019-04-04T12:25:11.185Z,8.13
2019-04-04T12:27:40.697Z,8.12
2019-04-04T12:30:11.156Z,8.20
2019-04-04T12:32:40.610Z,8.09
2019-04-04T12:35:10.568Z,7.93
2019-04-04T12:37:40.140Z,8.05
2019-04-04T12:40:20.446Z,8.21
2019-04-04T12:42:42.080Z,8.23
2019-04-04T12:45:12.106Z,8.19
2019-04-04T12:47:41.553Z,8.05
2019-04-04T12:50:11.547Z,8.24
2019-04-04T12:52:40.998Z,8.34
2019-04-04T12:55:10.259Z,8.40
2019-04-04T12:57:39.679Z,8.31
2019-04-04T13:00:11.076Z,8.20
2019-04-04T13:02:40.605Z,8.16
2019-04-04T13:05:10.716Z,8.04
2019-04-04T13:07:42.071Z,7.90
2019-04-04T13:10:12.433Z,7.77
2019-04-04T13:12:41.907Z,7.83
2019-04-04T13:15:11.829Z,7.87
2019-04-04T13:17:41.393Z,7.94
2019-04-04T13:20:11.727Z,8.10
2019-04-04T13:22:41.159Z,8.19
2019-04-04T13:25:10.984Z,8.13
2019-04-04T13:27:40.516Z,8.05
2019-04-04T13:30:12.998Z,7.83
2019-04-04T13:32:42.511Z,7.67
2019-04-04T13:35:12.457Z,7.68
2019-04-04T13:37:41.873Z,7.56
2019-04-04T13:40:14.081Z,7.73
2019-04-04T13:42:43.634Z,7.87
2019-04-04T13:45:13.436Z,8.05
2019-04-04T13:47:43.060Z,8.16
2019-04-04T13:50:13.131Z,8.16
2019-04-04T13:52:42.589Z,8.06
2019-04-04T13:55:12.185Z,8.21
2019-04-04T13:57:41.664Z,8.16
2019-04-04T14:00:11.969Z,8.11
2019-04-04T14:02:41.574Z,7.98
2019-04-04T14:05:14.290Z,8.05
2019-04-04T14:07:44.124Z,8.09
2019-04-04T14:10:16.972Z,7.98
2019-04-04T14:12:45.129Z,8.17
2019-04-04T14:15:14.560Z,8.36
2019-04-04T14:17:44.327Z,8.20
2019-04-04T14:20:13.754Z,8.21
2019-04-04T14:22:45.015Z,8.26
2019-04-04T14:25:14.086Z,8.21
2019-04-04T14:27:43.620Z,8.39
2019-04-04T14:30:13.925Z,8.39
2019-04-04T14:32:43.828Z,8.51
2019-04-04T14:35:13.497Z,8.42
2019-04-04T14:37:43.093Z,8.48
2019-04-04T14:40:12.773Z,8.59
2019-04-04T14:42:41.961Z,8.57
2019-04-04T14:45:11.754Z,8.68
2019-04-04T14:47:41.750Z,8.76
2019-04-04T14:50:11.413Z,9.06
2019-04-04T14:52:41.184Z,9.22
2019-04-04T14:55:11.168Z,9.22
2019-04-04T14:57:40.871Z,9.14
2019-04-04T15:00:10.782Z,9.22
2019-04-04T15:02:40.408Z,9.47
2019-04-04T15:05:09.970Z,9.42
2019-04-04T15:07:39.490Z,9.51
2019-04-04T15:10:09.635Z,9.35
2019-04-04T15:12:39.060Z,9.26
2019-04-04T15:15:09.179Z,9.26
2019-04-04T15:17:38.749Z,9.17
2019-04-04T15:20:10.252Z,9.17
2019-04-04T15:22:39.693Z,9.01
2019-04-04T15:25:09.666Z,9.01
2019-04-04T15:27:39.171Z,8.69
2019-04-04T15:30:09.258Z,8.77
2019-04-04T15:32:38.861Z,8.61
2019-04-04T15:35:09.319Z,8.74
2019-04-04T15:37:38.786Z,8.51
2019-04-04T15:40:08.254Z,8.50
2019-04-04T15:42:37.772Z,8.61
2019-04-04T15:45:07.640Z,8.61
2019-04-04T15:47:37.124Z,8.70
2019-04-04T15:50:07.884Z,8.70
2019-04-04T15:52:37.381Z,8.73
2019-04-04T15:55:07.662Z,8.37
2019-04-04T15:57:37.364Z,8.37
2019-04-04T16:00:07.950Z,8.59
2019-04-04T16:02:37.580Z,8.43
2019-04-04T16:05:08.174Z,8.47
2019-04-04T16:07:37.761Z,8.37
2019-04-04T16:10:07.872Z,8.36
2019-04-04T16:12:41.979Z,8.29
2019-04-04T16:15:14.125Z,8.31
2019-04-04T16:17:43.711Z,8.25
2019-04-04T16:20:14.858Z,8.32
2019-04-04T16:22:44.200Z,8.32
2019-04-04T16:25:13.970Z,8.25
2019-04-04T16:27:44.302Z,8.24
2019-04-04T16:30:14.171Z,8.21
2019-04-04T16:32:43.653Z,8.28
2019-04-04T16:35:13.314Z,8.37
2019-04-04T16:37:42.652Z,8.44
2019-04-04T16:40:12.479Z,8.50
2019-04-04T16:42:41.664Z,8.28
2019-04-04T16:45:11.465Z,8.28
2019-04-04T16:47:41.192Z,8.28
2019-04-04T16:50:11.283Z,8.34
2019-04-04T16:52:40.811Z,8.39
2019-04-04T16:55:10.665Z,8.46
2019-04-04T16:57:43.175Z,8.44
2019-04-04T17:00:13.492Z,8.56
2019-04-04T17:02:42.982Z,8.51
2019-04-04T17:05:12.977Z,8.30
2019-04-04T17:07:42.562Z,8.46
2019-04-04T17:10:12.284Z,8.53
2019-04-04T17:12:41.495Z,8.21
2019-04-04T17:15:11.822Z,8.17
2019-04-04T17:17:41.477Z,8.33
2019-04-04T17:20:10.687Z,8.17
2019-04-04T17:22:40.160Z,8.11
2019-04-04T17:25:09.776Z,8.29
2019-04-04T17:27:39.306Z,8.28
2019-04-04T17:30:09.417Z,8.22
2019-04-04T17:32:38.872Z,8.21
2019-04-04T17:35:08.663Z,8.27
2019-04-04T17:37:38.230Z,8.24
2019-04-04T17:40:09.463Z,8.06
2019-04-04T17:42:39.026Z,7.99
2019-04-04T17:45:09.398Z,8.06
2019-04-04T17:47:38.882Z,8.09
2019-04-04T17:50:13.268Z,8.06
2019-04-04T17:52:42.457Z,7.97
2019-04-04T17:55:12.334Z,8.03
2019-04-04T17:57:42.022Z,7.99
2019-04-04T18:00:12.938Z,7.89
2019-04-04T18:02:42.581Z,7.82
2019-04-04T18:05:12.557Z,7.89
2019-04-04T18:07:42.086Z,7.86
2019-04-04T18:10:12.374Z,7.93
2019-04-04T18:12:41.835Z,8.12
2019-04-04T18:15:11.651Z,8.10
2019-04-04T18:17:41.106Z,8.02
2019-04-04T18:20:11.485Z,7.96
2019-04-04T18:22:41.007Z,7.95
2019-04-04T18:25:10.876Z,7.88
2019-04-04T18:27:42.542Z,7.78
2019-04-04T18:30:11.968Z,7.82
2019-04-04T18:32:41.229Z,7.87
2019-04-04T18:35:11.667Z,7.76
2019-04-04T18:37:41.585Z,7.70
2019-04-04T18:40:11.770Z,7.81
2019-04-04T18:42:52.556Z,7.86
2019-04-04T18:45:13.933Z,7.83
2019-04-04T18:47:43.399Z,7.82
2019-04-04T18:50:13.523Z,7.88
2019-04-04T18:52:43.076Z,8.02
2019-04-04T18:55:19.746Z,8.07
2019-04-04T18:57:43.524Z,8.12
2019-04-04T19:00:13.927Z,8.02
2019-04-04T19:02:43.664Z,8.06
2019-04-04T19:05:13.657Z,8.00
2019-04-04T19:07:43.290Z,7.94
2019-04-04T19:10:12.554Z,7.97
2019-04-04T19:12:42.145Z,8.02
2019-04-04T19:15:11.884Z,8.00
2019-04-04T19:17:41.407Z,7.90
2019-04-04T19:20:11.613Z,7.90
2019-04-04T19:22:41.159Z,7.92
2019-04-04T19:25:13.653Z,7.75
2019-04-04T19:27:42.340Z,7.67
2019-04-04T19:30:12.110Z,7.84
2019-04-04T19:32:41.363Z,7.62
2019-04-04T19:35:11.487Z,7.82
2019-04-04T19:37:41.107Z,7.65
2019-04-04T19:40:11.133Z,7.57
2019-04-04T19:42:40.788Z,7.64
2019-04-04T19:45:10.647Z,7.57
2019-04-04T19:47:39.891Z,7.70
2019-04-04T19:50:11.193Z,7.55
2019-04-04T19:52:40.756Z,7.48
2019-04-04T19:55:10.902Z,7.60
2019-04-04T19:57:40.264Z,7.71
2019-04-04T20:00:10.899Z,7.59
2019-04-04T20:02:40.427Z,7.61
2019-04-04T20:05:10.444Z,7.64
2019-04-04T20:07:39.690Z,7.62
2019-04-04T20:10:09.586Z,7.61
2019-04-04T20:12:39.105Z,7.54
2019-04-04T20:15:08.815Z,7.53
2019-04-04T20:17:38.112Z,7.61
2019-04-04T20:20:08.676Z,7.52
2019-04-04T20:22:38.093Z,7.45
2019-04-04T20:25:07.729Z,7.50
2019-04-04T20:27:37.580Z,7.56
2019-04-04T20:30:09.223Z,7.65
2019-04-04T20:32:39.471Z,7.70
2019-04-04T20:35:09.099Z,7.71
2019-04-04T20:37:38.580Z,7.54
2019-04-04T20:40:08.320Z,7.56
2019-04-04T20:42:37.837Z,7.68
2019-04-04T20:45:07.654Z,7.62
2019-04-04T20:47:37.229Z,7.52
2019-04-04T20:50:07.917Z,7.45
2019-04-04T20:52:38.969Z,7.43
2019-04-04T20:55:08.181Z,7.51
2019-04-04T20:57:37.638Z,7.44
2019-04-04T21:00:07.833Z,7.42
2019-04-04T21:02:37.289Z,7.45
2019-04-04T21:05:07.735Z,7.46
2019-04-04T21:07:37.611Z,7.44
2019-04-04T21:10:07.429Z,7.41
2019-04-04T21:12:37.003Z,7.46
2019-04-04T21:15:07.239Z,7.45
2019-04-04T21:17:37.739Z,7.36
2019-04-04T21:20:07.550Z,7.34
2019-04-04T21:22:37.031Z,7.31
2019-04-04T21:25:09.904Z,7.35
2019-04-04T21:27:39.404Z,7.43
2019-04-04T21:30:09.309Z,7.38
2019-04-04T21:32:38.636Z,7.35
2019-04-04T21:35:08.448Z,7.36
2019-04-04T21:37:37.881Z,7.44
2019-04-04T21:40:07.587Z,7.27
2019-04-04T21:42:37.091Z,7.36
2019-04-04T21:45:07.404Z,7.32
2019-04-04T21:47:36.666Z,7.30
2019-04-04T21:50:06.215Z,7.34
2019-04-04T21:52:36.520Z,7.21
2019-04-04T21:55:07.041Z,7.39
2019-04-04T21:57:36.559Z,7.25
2019-04-04T22:00:07.897Z,7.16
2019-04-04T22:02:37.577Z,7.16
2019-04-04T22:05:07.051Z,7.29
2019-04-04T22:07:36.670Z,7.21
2019-04-04T22:10:07.575Z,7.13
2019-04-04T22:12:37.144Z,7.13
2019-04-04T22:15:08.522Z,7.17
2019-04-04T22:17:38.056Z,7.23
2019-04-04T22:20:07.947Z,7.22
2019-04-04T22:22:37.702Z,7.21
2019-04-04T22:25:07.253Z,7.20
2019-04-04T22:27:37.019Z,7.21
2019-04-04T22:30:08.095Z,7.05
2019-04-04T22:32:37.656Z,7.01
2019-04-04T22:35:07.562Z,6.97
2019-04-04T22:37:37.096Z,6.92
2019-04-04T22:40:07.239Z,6.88
2019-04-04T22:42:36.856Z,6.93
2019-04-04T22:45:09.059Z,7.00
2019-04-04T22:47:38.561Z,7.12
2019-04-04T22:50:08.147Z,7.16
2019-04-04T22:52:38.513Z,7.02
2019-04-04T22:55:07.813Z,6.99
2019-04-04T22:57:37.144Z,6.80
2019-04-04T23:00:07.842Z,6.90
2019-04-04T23:02:37.264Z,7.02
2019-04-04T23:05:07.241Z,7.01
2019-04-04T23:07:36.866Z,7.08
2019-04-04T23:10:08.497Z,7.10
2019-04-04T23:12:37.853Z,7.09
2019-04-04T23:15:08.360Z,7.17
2019-04-04T23:17:37.407Z,7.07
2019-04-04T23:20:09.294Z,7.15
2019-04-04T23:22:47.017Z,6.90
2019-04-04T23:25:09.252Z,7.05
2019-04-04T23:27:38.830Z,7.05
2019-04-04T23:30:08.169Z,7.05
2019-04-04T23:32:37.709Z,7.01
2019-04-04T23:35:07.935Z,7.08
2019-04-04T23:37:37.482Z,7.21
2019-04-04T23:40:07.277Z,7.26
2019-04-04T23:42:36.769Z,7.15
2019-04-04T23:45:07.885Z,6.78
2019-04-04T23:47:43.337Z,6.74
2019-04-04T23:50:08.757Z,6.97
2019-04-04T23:52:38.266Z,7.03
2019-04-04T23:55:07.972Z,6.91
2019-04-04T23:57:37.518Z,6.86
